Time;durP1;ratioP1;P1;durP2;ratioP2;P2;SDS_P1;SDS_P2;PMS_P1;PMS_P2;Temp;Humidity;BMP_temperature;BMP_pressure;BME280_temperature;BME280_humidity;BME280_pressure;Samples;Min_cycle;Max_cycle;Signal;HPM_P1;HPM_P2
2023/10/24 00:01:17;;;;;;;13.85;8.50;;;10.30;99.90;;;;;;5025388;28;20053;-85
2023/10/24 00:04:05;;;;;;;16.58;8.95;;;10.20;99.90;;;;;;5022564;28;20045;-85
2023/10/24 00:06:52;;;;;;;14.13;8.68;;;10.20;99.90;;;;;;5005374;28;20319;-82
2023/10/24 00:09:40;;;;;;;12.43;8.20;;;10.30;99.90;;;;;;4999520;28;20046;-85
2023/10/24 00:12:27;;;;;;;12.05;8.93;;;10.30;99.90;;;;;;5002473;28;20486;-86
2023/10/24 00:15:14;;;;;;;14.77;9.20;;;10.30;99.90;;;;;;5014354;28;20054;-78
2023/10/24 00:18:02;;;;;;;15.05;8.82;;;10.20;99.90;;;;;;5003638;28;20038;-83
2023/10/24 00:20:49;;;;;;;11.32;8.52;;;10.20;99.90;;;;;;5024500;28;20054;-84
2023/10/24 00:23:38;;;;;;;12.38;8.77;;;10.10;99.90;;;;;;5015125;28;20054;-85
2023/10/24 00:26:25;;;;;;;13.95;8.55;;;10.10;99.90;;;;;;5012690;28;20042;-85
2023/10/24 00:29:15;;;;;;;10.77;8.65;;;10.10;99.90;;;;;;5012852;28;20137;-85
2023/10/24 00:32:03;;;;;;;12.82;8.50;;;10.00;99.90;;;;;;5017574;28;20060;-84
2023/10/24 00:34:50;;;;;;;11.73;8.82;;;10.00;99.90;;;;;;5000390;28;20120;-84
2023/10/24 00:37:40;;;;;;;9.18;8.15;;;9.90;99.90;;;;;;5013898;28;20074;-84
2023/10/24 00:40:27;;;;;;;11.35;8.35;;;9.90;99.90;;;;;;5010821;28;20470;-84
2023/10/24 00:43:14;;;;;;;17.38;9.40;;;9.90;99.90;;;;;;5017491;28;20568;-85
2023/10/24 00:46:04;;;;;;;15.27;10.07;;;9.90;99.90;;;;;;4999517;28;20471;-84
2023/10/24 00:48:52;;;;;;;13.32;10.40;;;10.00;99.90;;;;;;5013665;28;20501;-79
2023/10/24 00:51:40;;;;;;;13.23;9.80;;;9.90;99.90;;;;;;5020322;28;20061;-85
2023/10/24 00:54:29;;;;;;;14.93;9.70;;;10.00;99.90;;;;;;5016975;28;20049;-85
2023/10/24 00:57:16;;;;;;;13.68;9.65;;;10.10;99.90;;;;;;5026019;28;20045;-79
2023/10/24 01:00:04;;;;;;;13.68;9.52;;;10.10;99.90;;;;;;5007923;28;20037;-85
2023/10/24 01:02:52;;;;;;;12.32;8.65;;;10.20;99.90;;;;;;5011505;28;20127;-85
2023/10/24 01:05:42;;;;;;;13.90;8.63;;;10.20;99.90;;;;;;5016249;28;20142;-83
2023/10/24 01:08:29;;;;;;;12.55;8.90;;;10.10;99.90;;;;;;5004206;28;20053;-85
2023/10/24 01:11:19;;;;;;;12.60;8.18;;;10.20;99.90;;;;;;5021929;28;20057;-85
2023/10/24 01:14:07;;;;;;;12.27;8.18;;;10.20;99.90;;;;;;5018658;28;20509;-84
2023/10/24 01:16:54;;;;;;;12.65;9.05;;;10.20;99.90;;;;;;5017983;28;20052;-83
2023/10/24 01:19:43;;;;;;;10.73;8.60;;;10.20;99.90;;;;;;5008104;28;20133;-84
2023/10/24 01:22:31;;;;;;;12.50;9.23;;;10.20;99.90;;;;;;5022476;28;20065;-84
2023/10/24 01:25:20;;;;;;;10.60;8.38;;;10.20;99.90;;;;;;5031217;28;20046;-84
2023/10/24 01:28:08;;;;;;;17.05;8.68;;;10.20;99.90;;;;;;5019039;28;20050;-84
2023/10/24 01:30:56;;;;;;;13.05;8.85;;;10.20;99.90;;;;;;5014204;28;20049;-78
2023/10/24 01:33:45;;;;;;;10.15;8.48;;;10.10;99.90;;;;;;5025940;28;20046;-84
2023/10/24 01:36:33;;;;;;;12.93;8.00;;;10.10;99.90;;;;;;5020999;28;20057;-85
2023/10/24 01:39:23;;;;;;;12.25;8.27;;;10.10;99.90;;;;;;5017022;28;20080;-80
2023/10/24 01:42:10;;;;;;;13.65;8.25;;;10.00;99.90;;;;;;5002871;28;20053;-84
2023/10/24 01:44:57;;;;;;;14.93;8.23;;;10.00;99.90;;;;;;5019898;28;20045;-85
2023/10/24 01:47:44;;;;;;;12.23;8.77;;;10.00;99.90;;;;;;5015062;28;20447;-84
2023/10/24 01:50:32;;;;;;;12.98;9.18;;;10.00;99.90;;;;;;5015941;28;20411;-85
2023/10/24 01:53:22;;;;;;;15.25;9.45;;;10.00;99.90;;;;;;5020463;28;20064;-84
2023/10/24 01:56:13;;;;;;;10.98;8.63;;;10.10;99.90;;;;;;5016574;28;20050;-84
2023/10/24 01:59:00;;;;;;;13.75;8.07;;;10.10;99.90;;;;;;5014948;28;20052;-84
2023/10/24 02:01:47;;;;;;;11.93;8.45;;;10.10;99.90;;;;;;5018530;28;20050;-85
2023/10/24 02:04:37;;;;;;;12.20;8.18;;;10.10;99.90;;;;;;5010278;28;20104;-85
2023/10/24 02:07:27;;;;;;;10.55;8.02;;;10.10;99.90;;;;;;5023419;28;20362;-84
2023/10/24 02:10:15;;;;;;;11.90;7.78;;;10.00;99.90;;;;;;5022545;28;20044;-84
2023/10/24 02:13:03;;;;;;;12.90;8.27;;;10.00;99.90;;;;;;5013607;28;20218;-80
2023/10/24 02:15:53;;;;;;;14.65;8.82;;;9.90;99.90;;;;;;5011635;28;20057;-84
2023/10/24 02:18:40;;;;;;;13.30;8.40;;;9.90;99.90;;;;;;5017167;28;20067;-84
2023/10/24 02:21:27;;;;;;;10.27;8.15;;;9.90;99.90;;;;;;5018087;28;20049;-84
2023/10/24 02:24:17;;;;;;;11.13;6.93;;;9.90;99.90;;;;;;5016313;28;20463;-81
2023/10/24 02:27:04;;;;;;;9.35;6.20;;;9.90;99.90;;;;;;5015453;28;20485;-83
2023/10/24 02:29:51;;;;;;;9.60;6.88;;;10.10;99.90;;;;;;5015595;28;20473;-83
2023/10/24 02:32:38;;;;;;;12.68;6.97;;;10.10;99.90;;;;;;5014752;28;20045;-84
2023/10/24 02:35:28;;;;;;;9.77;6.35;;;10.20;99.90;;;;;;5012924;28;20048;-83
2023/10/24 02:38:16;;;;;;;16.42;7.30;;;10.30;99.90;;;;;;5015353;28;20080;-84
2023/10/24 02:41:04;;;;;;;9.55;6.80;;;10.30;99.90;;;;;;5014591;28;20399;-85
2023/10/24 02:43:54;;;;;;;10.85;7.25;;;10.30;99.90;;;;;;5013979;28;20037;-84
2023/10/24 02:46:41;;;;;;;9.63;6.38;;;10.30;99.90;;;;;;5014881;28;20048;-83
2023/10/24 02:49:32;;;;;;;12.90;6.78;;;10.30;99.90;;;;;;4999386;28;20386;-82
2023/10/24 02:52:21;;;;;;;9.05;5.95;;;10.20;99.90;;;;;;5011371;28;20056;-84
2023/10/24 02:55:11;;;;;;;11.07;5.78;;;10.20;99.90;;;;;;5014665;28;20076;-81
2023/10/24 02:57:58;;;;;;;9.48;5.78;;;10.20;99.90;;;;;;5011019;28;20054;-83
2023/10/24 03:00:46;;;;;;;10.82;5.88;;;10.10;99.90;;;;;;5014498;28;20042;-83
2023/10/24 03:03:36;;;;;;;9.48;5.65;;;10.10;99.90;;;;;;5013333;28;20061;-84
2023/10/24 03:06:23;;;;;;;14.52;6.40;;;10.20;99.90;;;;;;5012939;28;20062;-83
2023/10/24 03:09:10;;;;;;;8.07;5.72;;;10.10;99.90;;;;;;5014060;28;20454;-86
2023/10/24 03:11:57;;;;;;;12.68;5.78;;;10.10;99.90;;;;;;5010551;28;20038;-84
2023/10/24 03:14:45;;;;;;;9.20;5.70;;;10.10;99.90;;;;;;5012367;28;20046;-83
2023/10/24 03:17:32;;;;;;;7.97;5.32;;;10.10;99.90;;;;;;5012845;28;20076;-85
2023/10/24 03:20:22;;;;;;;9.88;5.28;;;10.10;99.90;;;;;;5009892;28;20069;-87
2023/10/24 03:23:14;;;;;;;10.02;5.50;;;10.20;99.90;;;;;;5011972;28;20041;-87
2023/10/24 03:26:09;;;;;;;12.45;5.63;;;10.20;99.90;;;;;;4999096;28;20077;-86
2023/10/24 03:28:58;;;;;;;9.82;4.95;;;10.20;99.90;;;;;;5009518;28;20060;-84
2023/10/24 03:31:45;;;;;;;6.60;4.43;;;10.30;99.90;;;;;;5012916;28;20176;-86
2023/10/24 03:34:37;;;;;;;8.75;4.35;;;10.30;99.90;;;;;;5001840;28;20077;-86
2023/10/24 03:37:27;;;;;;;10.82;4.93;;;10.30;99.90;;;;;;5011312;28;20045;-86
2023/10/24 03:40:19;;;;;;;13.82;7.15;;;10.40;99.90;;;;;;5013865;28;20116;-87
2023/10/24 03:43:06;;;;;;;10.23;7.20;;;10.30;99.90;;;;;;5015354;28;20042;-86
2023/10/24 03:45:53;;;;;;;14.10;7.82;;;10.20;99.90;;;;;;5008572;28;20331;-87
2023/10/24 03:48:43;;;;;;;10.38;6.70;;;10.20;99.90;;;;;;5021394;28;20049;-87
2023/10/24 03:51:30;;;;;;;9.05;7.40;;;10.10;99.90;;;;;;4997600;28;20041;-87
2023/10/24 03:54:20;;;;;;;12.02;7.18;;;10.00;99.90;;;;;;4998533;28;20132;-85
2023/10/24 03:57:09;;;;;;;11.05;6.20;;;10.00;99.90;;;;;;5013756;28;20045;-87
2023/10/24 03:59:57;;;;;;;11.65;7.18;;;10.10;99.90;;;;;;5011548;28;20057;-86
2023/10/24 04:02:46;;;;;;;12.65;7.15;;;10.10;99.90;;;;;;5008612;28;20346;-87
2023/10/24 04:05:34;;;;;;;11.23;6.88;;;10.00;99.90;;;;;;5016101;28;20046;-85
2023/10/24 04:08:26;;;;;;;10.70;5.95;;;10.00;99.90;;;;;;5015006;28;20046;-85
2023/10/24 04:11:17;;;;;;;8.07;5.82;;;10.00;99.90;;;;;;5006100;28;22040;-86
2023/10/24 04:14:04;;;;;;;8.45;5.38;;;10.00;99.90;;;;;;5012417;28;20446;-87
2023/10/24 04:16:52;;;;;;;13.90;6.03;;;10.10;99.90;;;;;;4993906;28;20044;-87
2023/10/24 04:19:41;;;;;;;9.45;5.72;;;10.00;99.90;;;;;;5000219;28;20069;-85
2023/10/24 04:22:28;;;;;;;11.70;5.18;;;10.00;99.90;;;;;;4996680;28;20077;-86
2023/10/24 04:25:18;;;;;;;9.07;4.68;;;10.00;99.90;;;;;;5011559;28;20107;-85
2023/10/24 04:28:08;;;;;;;6.72;4.47;;;10.10;99.90;;;;;;5010612;28;20042;-83
2023/10/24 04:30:55;;;;;;;10.57;6.03;;;10.30;99.90;;;;;;4987755;28;20050;-86
2023/10/24 04:33:46;;;;;;;8.70;4.90;;;10.40;99.90;;;;;;5014647;28;20050;-85
2023/10/24 04:36:33;;;;;;;10.93;5.70;;;10.40;99.90;;;;;;5012049;28;20144;-87
2023/10/24 04:39:20;;;;;;;9.65;5.15;;;10.40;99.90;;;;;;5002796;28;20069;-86
2023/10/24 04:42:13;;;;;;;9.05;5.13;;;10.40;99.90;;;;;;5007137;28;20469;-85
2023/10/24 04:45:02;;;;;;;9.73;4.78;;;10.40;99.90;;;;;;5013828;28;20053;-81
2023/10/24 04:47:49;;;;;;;7.63;5.10;;;10.30;99.90;;;;;;5007808;28;20042;-83
2023/10/24 04:50:39;;;;;;;6.30;4.72;;;10.30;99.90;;;;;;5011051;28;20120;-82
2023/10/24 04:53:29;;;;;;;8.20;4.57;;;10.30;99.90;;;;;;5013914;28;20045;-82
2023/10/24 04:56:18;;;;;;;10.25;6.18;;;10.30;99.90;;;;;;5014052;28;20060;-82
2023/10/24 04:59:08;;;;;;;7.47;5.35;;;10.30;99.90;;;;;;5015319;28;20457;-82
2023/10/24 05:01:55;;;;;;;11.02;6.35;;;10.30;99.90;;;;;;5028046;28;20134;-82
2023/10/24 05:04:43;;;;;;;12.75;5.90;;;10.30;99.90;;;;;;5018623;28;20054;-80
2023/10/24 05:07:30;;;;;;;7.90;4.80;;;10.30;99.90;;;;;;4999514;28;20061;-81
2023/10/24 05:10:17;;;;;;;14.02;5.35;;;10.30;99.90;;;;;;4988443;28;20049;-82
2023/10/24 05:13:09;;;;;;;9.35;4.80;;;10.30;99.90;;;;;;5008834;28;20205;-82
2023/10/24 05:15:56;;;;;;;6.18;4.72;;;10.20;99.90;;;;;;5014460;28;20046;-82
2023/10/24 05:18:46;;;;;;;7.55;3.50;;;10.30;99.90;;;;;;5014082;28;20184;-82
2023/10/24 05:21:33;;;;;;;7.65;4.00;;;10.30;99.90;;;;;;5014229;28;20069;-82
2023/10/24 05:24:20;;;;;;;6.47;4.05;;;10.40;99.90;;;;;;5010623;28;20049;-83
2023/10/24 05:27:08;;;;;;;8.68;4.43;;;10.40;99.90;;;;;;5012686;28;20092;-84
2023/10/24 05:29:58;;;;;;;12.10;4.38;;;10.40;99.90;;;;;;5014456;28;20076;-85
2023/10/24 05:32:50;;;;;;;9.80;4.70;;;10.40;99.90;;;;;;4989918;28;20426;-84
2023/10/24 05:35:46;;;;;;;5.70;4.15;;;10.40;99.90;;;;;;5014458;28;20057;-84
2023/10/24 05:39:26;;;;;;;8.30;4.82;;;10.40;99.90;;;;;;5013102;28;20050;-84
2023/10/24 05:42:23;;;;;;;7.07;4.30;;;10.40;99.90;;;;;;5014595;28;20958;-86
2023/10/24 05:45:10;;;;;;;8.02;4.75;;;10.30;99.90;;;;;;5015190;28;20398;-86
2023/10/24 05:48:03;;;;;;;7.03;4.53;;;10.30;99.90;;;;;;4999637;28;20053;-86
2023/10/24 05:50:52;;;;;;;10.70;4.53;;;10.30;99.90;;;;;;5006952;28;20049;-85
2023/10/24 05:53:44;;;;;;;10.55;4.50;;;10.30;99.90;;;;;;5008219;28;20421;-84
2023/10/24 05:56:32;;;;;;;8.77;5.07;;;10.30;99.90;;;;;;4998302;28;20053;-86
2023/10/24 05:59:19;;;;;;;13.48;5.57;;;10.30;99.90;;;;;;5007061;28;20308;-84
2023/10/24 06:02:06;;;;;;;7.50;5.45;;;10.20;99.90;;;;;;5010662;28;20055;-84
2023/10/24 06:04:54;;;;;;;10.77;6.05;;;10.20;99.90;;;;;;5011272;28;20078;-84
2023/10/24 06:07:41;;;;;;;14.20;7.45;;;10.20;99.90;;;;;;5023389;28;20042;-83
2023/10/24 06:10:28;;;;;;;14.45;7.05;;;10.10;99.90;;;;;;5015650;28;20070;-84
2023/10/24 06:13:16;;;;;;;8.13;6.20;;;10.00;99.90;;;;;;5011117;28;20128;-83
2023/10/24 06:16:08;;;;;;;9.45;6.05;;;10.00;99.90;;;;;;5011906;28;20050;-79
2023/10/24 06:19:00;;;;;;;7.07;5.82;;;10.00;99.90;;;;;;5011675;28;20192;-83
2023/10/24 06:21:47;;;;;;;8.05;4.82;;;10.10;99.90;;;;;;4998559;28;20050;-83
2023/10/24 06:24:37;;;;;;;14.23;7.88;;;10.10;99.90;;;;;;5010331;28;20046;-81
2023/10/24 06:27:24;;;;;;;12.93;7.10;;;10.20;99.90;;;;;;4996730;28;20054;-82
2023/10/24 06:35:02;;;;;;;10.98;5.55;;;10.30;99.90;;;;;;4931283;29;20141;-86
2023/10/24 06:50:53;;;;;;;9.13;4.60;;;10.40;99.90;;;;;;4832258;29;20061;-85
2023/10/24 06:54:22;;;;;;;8.15;5.13;;;10.40;99.90;;;;;;4837945;29;20066;-86
2023/10/24 07:01:38;;;;;;;9.93;5.97;;;10.40;99.90;;;;;;4836455;29;20154;-84
2023/10/24 07:04:37;;;;;;;6.50;5.20;;;10.40;99.90;;;;;;4839956;29;20689;-85
2023/10/24 07:07:43;;;;;;;;;;;;;;;;;;;;;
2023/10/24 07:18:55;;;;;;;17.83;8.00;;;10.50;99.90;;;;;;4803728;29;20394;-85
2023/10/24 07:31:08;;;;;;;15.35;10.15;;;10.60;99.90;;;;;;4820592;29;20074;-86
2023/10/24 07:33:56;;;;;;;17.20;11.32;;;10.60;99.90;;;;;;4762613;30;20473;-84
2023/10/24 07:41:11;;;;;;;12.48;8.00;;;10.50;99.90;;;;;;4773151;29;20164;-87
2023/10/24 07:44:29;;;;;;;17.63;7.18;;;10.60;99.90;;;;;;4767748;29;20123;-86
2023/10/24 07:48:12;;;;;;;;;;;;;;;;;;;;;
2023/10/24 07:52:17;;;;;;;10.38;4.35;;;10.90;99.90;;;;;;4873527;29;20049;-84
2023/10/24 07:55:36;;;;;;;;;;;;;;;;;;;;;
2023/10/24 07:58:48;;;;;;;6.88;4.10;;;11.20;99.90;;;;;;4913270;29;20509;-84
2023/10/24 08:05:51;;;;;;;8.20;3.30;;;11.30;99.90;;;;;;4949131;28;20473;-85
2023/10/24 08:17:04;;;;;;;;;;;;;;;;;;;;;
2023/10/24 08:19:59;;;;;;;6.03;2.17;;;11.60;99.90;;;;;;5006936;28;20046;-86
2023/10/24 08:22:51;;;;;;;6.60;2.90;;;11.60;99.90;;;;;;5020139;28;20048;-87
2023/10/24 08:25:40;;;;;;;5.40;2.65;;;11.60;99.90;;;;;;5000841;28;20056;-86
2023/10/24 08:28:28;;;;;;;6.00;4.22;;;11.60;99.90;;;;;;5000009;28;20053;-89
2023/10/24 08:31:46;;;;;;;6.22;3.75;;;11.50;99.90;;;;;;4996293;28;20037;-87
2023/10/24 08:35:01;;;;;;;5.30;3.20;;;11.40;99.90;;;;;;4997850;28;20057;-88
2023/10/24 08:38:34;;;;;;;;;;;;;;;;;;;;;
2023/10/24 08:41:13;;;;;;;7.72;3.42;;;11.50;99.90;;;;;;5013577;28;20046;-85
2023/10/24 08:44:15;;;;;;;;;;;;;;;;;;;;;
2023/10/24 08:47:32;;;;;;;9.10;4.60;;;11.50;99.90;;;;;;4924042;29;20550;-86
2023/10/24 08:50:26;;;;;;;7.63;4.15;;;11.50;99.90;;;;;;4940583;28;20046;-84
2023/10/24 08:53:16;;;;;;;10.40;3.90;;;11.40;99.90;;;;;;4994362;28;20049;-85
2023/10/24 08:56:06;;;;;;;11.95;4.47;;;11.50;99.90;;;;;;5012185;28;20046;-85
2023/10/24 08:58:57;;;;;;;7.25;3.97;;;11.50;99.90;;;;;;5010050;28;20137;-86
2023/10/24 09:01:48;;;;;;;9.57;4.40;;;11.50;99.90;;;;;;5011432;28;20068;-87
2023/10/24 09:04:35;;;;;;;8.48;5.15;;;11.50;99.90;;;;;;5011257;28;20476;-89
2023/10/24 09:07:25;;;;;;;6.20;3.70;;;11.60;99.90;;;;;;4991116;28;20057;-89
2023/10/24 09:10:13;;;;;;;4.90;3.03;;;11.60;99.90;;;;;;5012034;28;20410;-88
2023/10/24 09:13:05;;;;;;;7.18;2.70;;;11.70;99.90;;;;;;5004054;28;20042;-88
2023/10/24 09:16:12;;;;;;;9.00;2.83;;;11.70;99.90;;;;;;5009778;28;20411;-87
2023/10/24 09:19:07;;;;;;;5.55;3.17;;;11.70;99.90;;;;;;5008889;28;20060;-88
2023/10/24 09:22:00;;;;;;;4.90;2.70;;;11.70;99.90;;;;;;5013155;28;20462;-89
2023/10/24 09:24:55;;;;;;;4.20;2.80;;;11.80;99.90;;;;;;5016503;28;20156;-88
2023/10/24 09:27:44;;;;;;;4.60;2.80;;;11.80;99.90;;;;;;5015257;28;20123;-87
2023/10/24 09:30:33;;;;;;;4.10;2.97;;;11.80;99.90;;;;;;5015388;28;20041;-86
2023/10/24 09:33:23;;;;;;;5.65;2.65;;;11.80;99.90;;;;;;5005808;28;20041;-89
2023/10/24 09:36:13;;;;;;;4.88;2.40;;;11.80;99.90;;;;;;5012905;28;20050;-87
2023/10/24 09:39:04;;;;;;;6.35;2.67;;;11.80;99.90;;;;;;5014553;28;20081;-87
2023/10/24 09:41:52;;;;;;;9.05;3.10;;;11.80;99.90;;;;;;5015260;28;20133;-88
2023/10/24 09:44:42;;;;;;;9.85;3.72;;;11.80;99.90;;;;;;5016821;28;20042;-87
2023/10/24 09:47:35;;;;;;;6.00;2.90;;;11.80;99.90;;;;;;5012830;28;20038;-89
2023/10/24 09:50:26;;;;;;;6.75;3.45;;;11.80;99.90;;;;;;5009838;28;20038;-87
2023/10/24 09:53:13;;;;;;;7.68;3.35;;;11.80;99.90;;;;;;5015687;28;20541;-88
2023/10/24 09:56:03;;;;;;;3.88;3.00;;;11.80;99.90;;;;;;5014359;28;20050;-89
2023/10/24 09:58:51;;;;;;;6.63;3.80;;;11.80;99.90;;;;;;5014711;28;20181;-86
2023/10/24 10:01:39;;;;;;;8.63;4.18;;;11.70;99.90;;;;;;5013354;28;20042;-87
2023/10/24 10:04:41;;;;;;;5.45;3.70;;;11.70;99.90;;;;;;5013814;28;20045;-87
2023/10/24 10:07:29;;;;;;;6.78;4.35;;;11.70;99.90;;;;;;5006912;28;20046;-86
2023/10/24 10:10:19;;;;;;;10.68;4.72;;;11.70;99.90;;;;;;5001377;28;20057;-87
2023/10/24 10:13:24;;;;;;;8.00;4.93;;;11.70;99.90;;;;;;5015367;28;20108;-88
2023/10/24 10:16:37;;;;;;;10.32;5.18;;;11.70;99.90;;;;;;5000158;28;20478;-88
2023/10/24 10:20:24;;;;;;;9.88;4.13;;;11.70;99.90;;;;;;5000628;28;20054;-87
2023/10/24 10:23:33;;;;;;;7.88;4.75;;;11.70;99.90;;;;;;4972277;28;20173;-87
2023/10/24 10:26:49;;;;;;;7.75;4.97;;;11.70;99.90;;;;;;5012441;28;20117;-88
2023/10/24 10:30:34;;;;;;;7.35;4.85;;;11.70;99.90;;;;;;5013223;28;20061;-87
2023/10/24 10:33:56;;;;;;;;;;;;;;;;;;;;;
2023/10/24 10:37:33;;;;;;;9.57;4.95;;;11.70;99.90;;;;;;5010490;28;20517;-85
2023/10/24 10:40:49;;;;;;;8.43;4.53;;;11.70;99.90;;;;;;4956480;28;20086;-87
2023/10/24 10:43:41;;;;;;;8.10;5.13;;;11.70;99.90;;;;;;5012902;28;20038;-87
2023/10/24 10:47:21;;;;;;;10.43;4.70;;;11.70;99.90;;;;;;5013971;28;20053;-87
2023/10/24 10:55:01;;;;;;;5.28;4.38;;;11.70;99.90;;;;;;5014965;28;20473;-89
2023/10/24 10:58:23;;;;;;;8.15;4.72;;;11.80;99.90;;;;;;4958975;28;20041;-87
2023/10/24 11:01:39;;;;;;;11.98;5.00;;;11.70;99.90;;;;;;5006734;28;20326;-88
2023/10/24 11:04:36;;;;;;;9.65;5.38;;;11.70;99.90;;;;;;5001027;28;20041;-88
2023/10/24 11:07:59;;;;;;;8.02;5.65;;;11.70;99.90;;;;;;5014567;28;20046;-89
2023/10/24 11:11:01;;;;;;;8.70;5.07;;;11.80;99.90;;;;;;4998258;28;20053;-87
2023/10/24 11:13:53;;;;;;;8.30;5.43;;;11.70;99.90;;;;;;5022527;28;20192;-87
2023/10/24 11:16:57;;;;;;;10.40;5.18;;;11.70;99.90;;;;;;4999467;28;20053;-86
2023/10/24 11:19:54;;;;;;;8.25;5.53;;;11.70;99.90;;;;;;5010884;28;20065;-88
2023/10/24 11:23:05;;;;;;;8.13;5.13;;;11.70;99.90;;;;;;5003506;28;20044;-88
2023/10/24 11:25:58;;;;;;;10.07;6.38;;;11.70;99.90;;;;;;5014387;28;20124;-88
2023/10/24 11:29:34;;;;;;;6.80;5.18;;;11.70;99.90;;;;;;4998035;28;20057;-89
2023/10/24 11:32:55;;;;;;;6.97;5.10;;;11.70;99.90;;;;;;4995087;28;20042;-90
2023/10/24 11:36:25;;;;;;;;;;;;;;;;;;;;;
2023/10/24 11:43:12;;;;;;;5.05;4.50;;;11.70;99.90;;;;;;4957615;28;20070;-89
2023/10/24 11:46:49;;;;;;;;;;;;;;;;;;;;;
2023/10/24 11:49:40;;;;;;;12.07;5.63;;;11.70;99.90;;;;;;4901559;28;20054;-89
2023/10/24 11:52:30;;;;;;;6.43;4.80;;;11.70;99.90;;;;;;4972442;28;20058;-89
2023/10/24 11:55:34;;;;;;;8.20;5.47;;;11.70;99.90;;;;;;4928511;29;20514;-89
2023/10/24 12:25:47;;;;;;;;;;;;;;;;;;;;;
2023/10/24 12:43:14;;;;;;;6.90;5.18;;;11.90;99.90;;;;;;5088075;27;20472;-88
2023/10/24 12:47:00;;;;;;;6.20;3.78;;;11.90;99.90;;;;;;5084817;28;20420;-88
2023/10/24 12:53:49;;;;;;;4.40;3.15;;;11.90;99.90;;;;;;5029586;28;20040;-88
2023/10/24 12:57:09;;;;;;;9.65;3.67;;;11.80;99.90;;;;;;5087769;28;20056;-89
2023/10/24 13:16:38;;;;;;;7.85;4.88;;;11.50;99.90;;;;;;4859611;29;20036;-88
2023/10/24 13:19:29;;;;;;;7.82;4.47;;;11.50;99.90;;;;;;4920024;29;20056;-88
2023/10/24 13:22:17;;;;;;;5.95;3.47;;;11.50;99.90;;;;;;5038739;28;20108;-88
2023/10/24 13:25:15;;;;;;;6.22;3.55;;;11.50;99.90;;;;;;5065880;28;20425;-90
2023/10/24 13:28:03;;;;;;;6.15;3.30;;;11.40;99.90;;;;;;5069925;28;20052;-88
2023/10/24 13:30:55;;;;;;;6.72;3.20;;;11.40;99.90;;;;;;5047486;28;20132;-88
2023/10/24 13:34:01;;;;;;;6.53;3.35;;;11.40;99.90;;;;;;5070120;28;20036;-88
2023/10/24 13:36:53;;;;;;;6.28;3.40;;;11.50;99.90;;;;;;5052982;28;20060;-86
2023/10/24 13:39:48;;;;;;;5.68;3.40;;;11.40;99.90;;;;;;5073427;28;20045;-86
2023/10/24 13:42:38;;;;;;;6.20;4.38;;;11.50;99.90;;;;;;5080221;28;20195;-85
2023/10/24 13:45:30;;;;;;;4.15;3.50;;;11.40;99.90;;;;;;5065868;28;20095;-85
2023/10/24 13:48:19;;;;;;;4.70;3.17;;;11.50;99.90;;;;;;5106820;28;20062;-87
2023/10/24 13:51:06;;;;;;;7.30;4.00;;;11.50;99.90;;;;;;5101030;28;20370;-84
2023/10/24 13:53:56;;;;;;;3.85;3.28;;;11.50;99.90;;;;;;5084754;28;20066;-86
2023/10/24 13:56:44;;;;;;;4.60;3.42;;;11.50;99.90;;;;;;5085296;28;20063;-87
2023/10/24 13:59:34;;;;;;;3.53;2.97;;;11.50;99.90;;;;;;5091266;28;20048;-86
2023/10/24 14:02:21;;;;;;;5.78;3.20;;;11.40;99.90;;;;;;5066981;28;20059;-87
2023/10/24 14:05:11;;;;;;;5.45;3.47;;;11.40;99.90;;;;;;5094837;28;20114;-84
2023/10/24 14:07:59;;;;;;;5.88;3.30;;;11.40;99.90;;;;;;5092044;28;20044;-86
2023/10/24 14:10:49;;;;;;;6.68;3.70;;;11.40;99.90;;;;;;5086338;28;20048;-87
2023/10/24 14:13:39;;;;;;;2.92;2.40;;;11.30;99.90;;;;;;5100756;28;20182;-86
2023/10/24 14:16:26;;;;;;;5.13;2.85;;;11.30;99.90;;;;;;5087398;28;20140;-86
2023/10/24 14:19:14;;;;;;;6.25;3.65;;;11.30;99.90;;;;;;5086181;28;20429;-87
2023/10/24 14:22:04;;;;;;;5.47;4.03;;;11.30;99.90;;;;;;5095274;28;20044;-88
2023/10/24 14:24:54;;;;;;;3.15;2.83;;;11.30;99.90;;;;;;5091401;28;20150;-87
2023/10/24 14:27:44;;;;;;;6.90;5.03;;;11.30;99.90;;;;;;5080787;28;20037;-85
2023/10/24 14:30:36;;;;;;;8.27;5.72;;;11.30;99.90;;;;;;5106814;28;20054;-86
2023/10/24 14:33:23;;;;;;;4.00;3.17;;;11.20;99.90;;;;;;5060761;28;20044;-86
2023/10/24 14:36:11;;;;;;;3.95;2.95;;;11.30;99.90;;;;;;5082915;28;20059;-87
2023/10/24 14:39:03;;;;;;;3.72;2.97;;;11.20;99.90;;;;;;5082157;28;20464;-87
2023/10/24 14:41:50;;;;;;;3.50;3.00;;;11.20;99.90;;;;;;5070758;28;20036;-87
2023/10/24 14:44:42;;;;;;;4.43;4.03;;;11.20;99.90;;;;;;5104779;28;20123;-85
2023/10/24 14:47:30;;;;;;;5.32;4.55;;;11.20;99.90;;;;;;5091560;28;20131;-84
2023/10/24 14:50:17;;;;;;;5.32;3.50;;;11.20;99.90;;;;;;5078955;28;20040;-85
2023/10/24 14:53:08;;;;;;;4.78;3.60;;;11.30;99.90;;;;;;5103249;28;20394;-85
2023/10/24 14:55:58;;;;;;;4.05;3.47;;;11.30;99.90;;;;;;5069436;28;20051;-84
2023/10/24 14:58:51;;;;;;;5.85;3.83;;;11.30;99.90;;;;;;5082166;28;20052;-87
2023/10/24 15:01:39;;;;;;;6.38;3.55;;;11.30;99.90;;;;;;5063551;28;20056;-87
2023/10/24 15:04:28;;;;;;;5.40;3.78;;;11.30;99.90;;;;;;5059607;28;20044;-86
2023/10/24 15:07:20;;;;;;;3.55;3.13;;;11.30;99.90;;;;;;5094952;28;20135;-87
2023/10/24 15:10:13;;;;;;;3.42;3.08;;;11.40;99.90;;;;;;5070121;28;20133;-81
2023/10/24 15:13:03;;;;;;;5.10;3.92;;;11.40;99.90;;;;;;5084139;28;20107;-87
2023/10/24 15:15:50;;;;;;;2.97;2.75;;;11.40;99.90;;;;;;5095936;28;20118;-85
2023/10/24 15:18:37;;;;;;;2.88;2.67;;;11.40;99.90;;;;;;5073444;28;20047;-86
2023/10/24 15:21:28;;;;;;;2.83;2.63;;;11.50;99.90;;;;;;5077099;28;20048;-87
2023/10/24 15:24:19;;;;;;;8.43;2.72;;;11.60;99.90;;;;;;5093490;28;20365;-88
2023/10/24 15:27:10;;;;;;;3.25;2.25;;;11.50;99.90;;;;;;5088432;28;20282;-85
2023/10/24 15:29:57;;;;;;;4.60;2.80;;;11.50;99.90;;;;;;5064089;28;20444;-85
2023/10/24 15:32:48;;;;;;;3.28;2.72;;;11.40;99.90;;;;;;5064135;28;20306;-84
2023/10/24 15:35:35;;;;;;;3.17;2.65;;;11.40;99.90;;;;;;5074029;28;20047;-86
2023/10/24 15:38:27;;;;;;;3.22;2.60;;;11.40;99.90;;;;;;5094563;28;20040;-87
2023/10/24 15:41:16;;;;;;;5.35;3.45;;;11.30;99.90;;;;;;5080054;28;20546;-87
2023/10/24 15:44:04;;;;;;;4.72;3.25;;;11.30;99.90;;;;;;5076489;28;20440;-87
2023/10/24 15:46:51;;;;;;;5.82;4.20;;;11.30;99.90;;;;;;5091363;28;20432;-88
2023/10/24 15:49:38;;;;;;;6.40;3.47;;;11.30;99.90;;;;;;5089908;28;20431;-87
2023/10/24 15:52:28;;;;;;;4.43;3.70;;;11.30;99.90;;;;;;5095186;28;20049;-85
2023/10/24 15:55:20;;;;;;;5.60;3.83;;;11.30;99.90;;;;;;5093200;28;20069;-86
2023/10/24 15:58:14;;;;;;;4.25;2.95;;;11.30;99.90;;;;;;5078948;28;20055;-85
2023/10/24 16:01:25;;;;;;;5.05;3.65;;;11.20;99.90;;;;;;5094965;28;20047;-85
2023/10/24 16:04:15;;;;;;;7.20;4.30;;;11.20;99.90;;;;;;5087233;28;20383;-86
2023/10/24 16:07:06;;;;;;;5.85;3.90;;;11.20;99.90;;;;;;5078912;28;20509;-84
2023/10/24 16:09:54;;;;;;;7.07;4.80;;;11.20;99.90;;;;;;5074335;28;20098;-84
2023/10/24 16:12:46;;;;;;;7.65;5.47;;;11.10;99.90;;;;;;5070072;28;20040;-87
2023/10/24 16:15:36;;;;;;;;;;;11.10;99.90;;;;;;5081051;28;20039;-85
2023/10/24 16:18:26;;;;;;;5.47;4.30;;;11.10;99.90;;;;;;5086207;28;20251;-86
2023/10/24 16:21:19;;;;;;;6.18;5.00;;;11.10;99.90;;;;;;5070206;28;20054;-87
2023/10/24 16:24:11;;;;;;;5.80;4.72;;;11.10;99.90;;;;;;5084710;28;20087;-85
2023/10/24 16:27:00;;;;;;;6.10;4.68;;;11.10;99.90;;;;;;5080922;28;20201;-87
2023/10/24 16:29:53;;;;;;;7.47;4.45;;;11.10;99.90;;;;;;5073024;28;21191;-86
2023/10/24 16:32:43;;;;;;;6.10;4.75;;;11.10;99.90;;;;;;5074184;28;20039;-86
2023/10/24 16:35:31;;;;;;;6.72;4.50;;;11.10;99.90;;;;;;5089406;28;20040;-86
2023/10/24 16:38:19;;;;;;;5.97;4.45;;;11.10;99.90;;;;;;5089876;28;20167;-84
2023/10/24 16:41:06;;;;;;;6.95;4.53;;;11.10;99.90;;;;;;5079585;28;20090;-87
2023/10/24 16:43:57;;;;;;;6.25;4.55;;;11.00;99.90;;;;;;5076618;28;20063;-85
2023/10/24 16:46:47;;;;;;;7.50;5.22;;;11.10;99.90;;;;;;5079050;28;20036;-86
2023/10/24 16:50:01;;;;;;;6.80;6.10;;;11.10;99.90;;;;;;5076961;28;20384;-85
2023/10/24 16:53:01;;;;;;;8.10;5.95;;;11.10;99.90;;;;;;5089121;28;20136;-86
2023/10/24 16:55:52;;;;;;;7.38;5.65;;;11.10;99.90;;;;;;5079769;28;20040;-84
2023/10/24 16:58:42;;;;;;;8.55;5.68;;;11.10;99.90;;;;;;5090133;28;20119;-84
2023/10/24 17:01:30;;;;;;;7.82;6.78;;;11.10;99.90;;;;;;5074609;28;20040;-85
2023/10/24 17:04:18;;;;;;;11.52;8.15;;;11.10;99.90;;;;;;5079198;28;20044;-85
2023/10/24 17:07:06;;;;;;;10.55;8.55;;;11.10;99.90;;;;;;5068039;28;20090;-85
2023/10/24 17:09:58;;;;;;;11.13;8.93;;;11.10;99.90;;;;;;5070153;28;20383;-86
2023/10/24 17:12:48;;;;;;;6.05;4.80;;;11.10;99.90;;;;;;5070072;28;20051;-87
2023/10/24 17:15:36;;;;;;;3.38;2.40;;;11.00;99.90;;;;;;5091354;28;20051;-87
2023/10/24 17:18:29;;;;;;;3.97;2.67;;;10.90;99.90;;;;;;5092109;28;20044;-86
2023/10/24 17:21:22;;;;;;;3.70;2.35;;;10.80;99.90;;;;;;5084995;28;20137;-87